Time;durP1;ratioP1;P1;durP2;ratioP2;P2;SDS_P1;SDS_P2;PMS_P1;PMS_P2;Temp;Humidity;BMP_temperature;BMP_pressure;BME280_temperature;BME280_humidity;BME280_pressure;Samples;Min_cycle;Max_cycle;Signal;HPM_P1;HPM_P2
2023/07/08 00:01:16;;;;;;;19.38;8.60;;;;;;;;;;5033804;28;20491;-68
2023/07/08 00:03:44;;;;;;;34.25;10.00;;;;;;;;;;5033864;28;20125;-68
2023/07/08 00:06:23;;;;;;;27.13;9.30;;;;;;;;;;5034062;28;20499;-68
2023/07/08 00:08:50;;;;;;;41.17;9.35;;;;;;;;;;5033787;28;20112;-68
2023/07/08 00:11:18;;;;;;;23.15;9.30;;;;;;;;;;5033756;28;20046;-68
2023/07/08 00:13:45;;;;;;;28.63;9.43;;;;;;;;;;5033650;28;20117;-68
2023/07/08 00:16:18;;;;;;;22.35;8.88;;;;;;;;;;5033470;28;20046;-68
2023/07/08 00:18:46;;;;;;;24.45;9.20;;;;;;;;;;5033452;28;20399;-68
2023/07/08 00:21:15;;;;;;;17.80;8.85;;;;;;;;;;5033534;28;20057;-68
2023/07/08 00:23:47;;;;;;;20.67;9.40;;;;;;;;;;5033589;28;20052;-68
2023/07/08 00:26:31;;;;;;;26.33;10.32;;;;;;;;;;5033237;28;20049;-68
2023/07/08 00:29:00;;;;;;;25.10;9.75;;;;;;;;;;5033434;28;20072;-68
2023/07/08 00:31:27;;;;;;;20.35;9.00;;;;;;;;;;5033326;28;20045;-68
2023/07/08 00:33:56;;;;;;;19.70;10.00;;;;;;;;;;5032023;28;20037;-68
2023/07/08 00:36:28;;;;;;;24.42;9.05;;;;;;;;;;5031443;28;20574;-68
2023/07/08 00:38:56;;;;;;;23.67;9.32;;;;;;;;;;5032060;28;20053;-68
2023/07/08 00:41:23;;;;;;;27.75;9.80;;;;;;;;;;5031768;28;20037;-68
2023/07/08 00:43:52;;;;;;;24.90;9.23;;;;;;;;;;5031765;28;20423;-68
2023/07/08 00:46:29;;;;;;;27.55;8.95;;;;;;;;;;5031762;28;20045;-68
2023/07/08 00:49:09;;;;;;;24.58;8.80;;;;;;;;;;5032004;28;20538;-68
2023/07/08 00:51:39;;;;;;;24.67;9.38;;;;;;;;;;5031719;28;20136;-68
2023/07/08 00:54:11;;;;;;;24.17;9.02;;;;;;;;;;5032945;28;20499;-68
2023/07/08 00:56:45;;;;;;;29.08;9.07;;;;;;;;;;5031457;28;20080;-68
2023/07/08 00:59:17;;;;;;;27.73;8.88;;;;;;;;;;5031431;28;20534;-68
2023/07/08 01:01:44;;;;;;;20.95;8.55;;;;;;;;;;5031527;28;20585;-68
2023/07/08 01:04:18;;;;;;;32.13;9.57;;;;;;;;;;5032817;28;20044;-68
2023/07/08 01:06:56;;;;;;;23.23;8.50;;;;;;;;;;5031509;28;20053;-68
2023/07/08 01:09:28;;;;;;;27.50;8.77;;;;;;;;;;5031383;28;20041;-68
2023/07/08 01:11:57;;;;;;;22.73;9.00;;;;;;;;;;5032763;28;20072;-68
2023/07/08 01:14:27;;;;;;;17.48;8.45;;;;;;;;;;5031468;28;20044;-68
2023/07/08 01:16:55;;;;;;;24.60;8.43;;;;;;;;;;5031156;28;20049;-68
2023/07/08 01:19:32;;;;;;;21.05;8.65;;;;;;;;;;5031187;28;20049;-68
2023/07/08 01:22:02;;;;;;;28.27;8.85;;;;;;;;;;5031109;28;20049;-68
2023/07/08 01:24:31;;;;;;;25.98;8.57;;;;;;;;;;5032475;28;20045;-69
2023/07/08 01:27:00;;;;;;;26.63;8.73;;;;;;;;;;5031313;28;20120;-68
2023/07/08 01:29:28;;;;;;;23.20;8.77;;;;;;;;;;5032518;28;20049;-68
2023/07/08 01:32:02;;;;;;;25.13;8.95;;;;;;;;;;5031233;28;20046;-68
2023/07/08 01:34:30;;;;;;;;;;;;;;;;;;5031631;28;20080;-68
2023/07/08 01:36:58;;;;;;;20.58;8.95;;;;;;;;;;5032065;28;20306;-68
2023/07/08 01:39:27;;;;;;;23.73;9.55;;;;;;;;;;5031104;28;20045;-68
2023/07/08 01:41:56;;;;;;;19.58;9.38;;;;;;;;;;5031178;28;20136;-68
2023/07/08 01:44:32;;;;;;;23.13;9.68;;;;;;;;;;5031109;28;20042;-68
2023/07/08 01:47:02;;;;;;;18.60;8.65;;;;;;;;;;5031176;28;20054;-68
2023/07/08 01:49:30;;;;;;;21.30;9.15;;;;;;;;;;5034667;28;20041;-68
2023/07/08 01:51:58;;;;;;;19.83;9.50;;;;;;;;;;5035130;28;20037;-68
2023/07/08 01:54:26;;;;;;;23.67;9.27;;;;;;;;;;5035164;28;20088;-68
2023/07/08 01:56:57;;;;;;;23.98;9.23;;;;;;;;;;5034889;28;20041;-68
2023/07/08 01:59:25;;;;;;;25.73;9.65;;;;;;;;;;5034928;28;20103;-68
2023/07/08 02:01:54;;;;;;;24.17;8.80;;;;;;;;;;5018778;28;20038;-68
2023/07/08 02:04:24;;;;;;;24.80;9.77;;;;;;;;;;5018584;28;20099;-68
2023/07/08 02:06:55;;;;;;;28.08;10.38;;;;;;;;;;5034845;28;20051;-68
2023/07/08 02:09:24;;;;;;;21.95;10.23;;;;;;;;;;5034676;28;20057;-68
2023/07/08 02:11:53;;;;;;;22.55;10.10;;;;;;;;;;5034838;28;20042;-68
2023/07/08 02:14:20;;;;;;;24.05;9.45;;;;;;;;;;5035896;28;20042;-68
2023/07/08 02:16:48;;;;;;;19.10;8.70;;;;;;;;;;5034373;28;20054;-68
2023/07/08 02:19:15;;;;;;;21.75;9.88;;;;;;;;;;5035827;28;20036;-68
2023/07/08 02:21:43;;;;;;;16.52;9.70;;;;;;;;;;5034568;28;20091;-68
2023/07/08 02:24:10;;;;;;;22.48;10.55;;;;;;;;;;5034376;28;20519;-68
2023/07/08 02:26:38;;;;;;;19.30;9.10;;;;;;;;;;5034432;28;20048;-68
2023/07/08 02:29:07;;;;;;;17.50;9.52;;;;;;;;;;5035570;28;20503;-68
2023/07/08 02:31:35;;;;;;;16.95;8.65;;;;;;;;;;5034290;28;20049;-68
2023/07/08 02:34:02;;;;;;;29.33;9.82;;;;;;;;;;5035630;28;20487;-68
2023/07/08 02:36:30;;;;;;;33.88;9.93;;;;;;;;;;5034169;28;20056;-68
2023/07/08 02:38:57;;;;;;;26.20;9.88;;;;;;;;;;5034231;28;20480;-68
2023/07/08 02:41:25;;;;;;;27.58;9.20;;;;;;;;;;5034148;28;20510;-68
2023/07/08 02:43:52;;;;;;;32.70;9.25;;;;;;;;;;5034260;28;20563;-68
2023/07/08 02:46:19;;;;;;;20.83;8.95;;;;;;;;;;5034159;28;20037;-68
2023/07/08 02:48:47;;;;;;;21.60;9.07;;;;;;;;;;5034034;28;20049;-68
2023/07/08 02:51:15;;;;;;;19.90;8.93;;;;;;;;;;5035095;28;20065;-68
2023/07/08 02:53:42;;;;;;;20.52;9.70;;;;;;;;;;5033981;28;20139;-68
2023/07/08 02:56:10;;;;;;;23.98;9.15;;;;;;;;;;5033706;28;20033;-68
2023/07/08 02:58:37;;;;;;;19.50;8.52;;;;;;;;;;5033649;28;20073;-68
2023/07/08 03:01:06;;;;;;;22.40;9.82;;;;;;;;;;5035053;28;20132;-68
2023/07/08 03:03:34;;;;;;;21.58;9.18;;;;;;;;;;5034929;28;20111;-68
2023/07/08 03:06:05;;;;;;;17.98;9.55;;;;;;;;;;5033717;28;20043;-68
2023/07/08 03:08:33;;;;;;;16.10;9.30;;;;;;;;;;5033629;28;20068;-68
2023/07/08 03:11:02;;;;;;;16.92;9.23;;;;;;;;;;5033600;28;20053;-68
2023/07/08 03:13:31;;;;;;;23.65;9.80;;;;;;;;;;5034839;28;20049;-68
2023/07/08 03:15:59;;;;;;;20.00;9.57;;;;;;;;;;5034654;28;20038;-68
2023/07/08 03:18:27;;;;;;;20.25;9.75;;;;;;;;;;5033207;28;20057;-68
2023/07/08 03:20:56;;;;;;;23.80;9.55;;;;;;;;;;5033590;28;20116;-68
2023/07/08 03:23:25;;;;;;;20.48;9.70;;;;;;;;;;5033414;28;20132;-68
2023/07/08 03:25:53;;;;;;;20.50;10.07;;;;;;;;;;5033107;28;20132;-68
2023/07/08 03:28:23;;;;;;;18.23;9.65;;;;;;;;;;5033319;28;20045;-68
2023/07/08 03:30:53;;;;;;;21.67;10.80;;;;;;;;;;5033227;28;20427;-68
2023/07/08 03:33:21;;;;;;;20.25;9.80;;;;;;;;;;5033280;28;20049;-68
2023/07/08 03:35:49;;;;;;;19.90;9.80;;;;;;;;;;5033120;28;20052;-68
2023/07/08 03:38:16;;;;;;;16.45;9.85;;;;;;;;;;5032981;28;20081;-68
2023/07/08 03:40:44;;;;;;;28.35;10.55;;;;;;;;;;5033089;28;20041;-68
2023/07/08 03:43:11;;;;;;;23.10;10.65;;;;;;;;;;5033217;28;20041;-68
2023/07/08 03:45:39;;;;;;;23.50;10.80;;;;;;;;;;5032879;28;20372;-68
2023/07/08 03:48:11;;;;;;;28.67;11.18;;;;;;;;;;5033181;28;20491;-68
2023/07/08 03:50:39;;;;;;;26.83;11.68;;;;;;;;;;5032719;28;20073;-68
2023/07/08 03:53:09;;;;;;;29.38;11.65;;;;;;;;;;5033001;28;20084;-68
2023/07/08 03:55:37;;;;;;;27.77;11.18;;;;;;;;;;5032774;28;20057;-68
2023/07/08 03:58:05;;;;;;;25.35;11.18;;;;;;;;;;5032780;28;20041;-68
2023/07/08 04:00:35;;;;;;;27.08;11.30;;;;;;;;;;5032481;28;20045;-68
2023/07/08 04:03:03;;;;;;;21.65;10.98;;;;;;;;;;5032649;28;20525;-68
2023/07/08 04:05:30;;;;;;;22.38;11.82;;;;;;;;;;5032602;28;20469;-68
2023/07/08 04:07:58;;;;;;;25.25;11.70;;;;;;;;;;5034116;28;20050;-68
2023/07/08 04:10:25;;;;;;;16.67;10.90;;;;;;;;;;5031554;28;20140;-68
2023/07/08 04:12:53;;;;;;;21.75;10.38;;;;;;;;;;5033948;28;20456;-68
2023/07/08 04:15:25;;;;;;;21.85;10.02;;;;;;;;;;5033696;28;20033;-68
2023/07/08 04:17:55;;;;;;;29.88;11.07;;;;;;;;;;5032339;28;20045;-67
2023/07/08 04:20:23;;;;;;;22.27;11.10;;;;;;;;;;5033571;28;20112;-66
2023/07/08 04:22:51;;;;;;;22.40;10.93;;;;;;;;;;5033544;28;20045;-66
2023/07/08 04:25:19;;;;;;;21.10;10.05;;;;;;;;;;5033458;28;20116;-66
2023/07/08 04:27:47;;;;;;;21.48;10.35;;;;;;;;;;5033450;28;20045;-67
2023/07/08 04:30:22;;;;;;;24.83;10.73;;;;;;;;;;5033404;28;20049;-67
2023/07/08 04:32:51;;;;;;;17.92;9.25;;;;;;;;;;5033404;28;20040;-67
2023/07/08 04:35:18;;;;;;;18.38;10.27;;;;;;;;;;5032173;28;20547;-67
2023/07/08 04:37:47;;;;;;;21.00;11.00;;;;;;;;;;5031428;28;20075;-67
2023/07/08 04:40:18;;;;;;;20.50;11.18;;;;;;;;;;5033509;28;20048;-67
2023/07/08 04:42:47;;;;;;;21.23;10.65;;;;;;;;;;5031174;28;20049;-67
2023/07/08 04:45:17;;;;;;;18.25;10.43;;;;;;;;;;5032451;28;20399;-68
2023/07/08 04:47:52;;;;;;;20.90;10.80;;;;;;;;;;5032437;28;20059;-67
2023/07/08 04:50:20;;;;;;;18.55;11.20;;;;;;;;;;5030010;28;20037;-68
2023/07/08 04:52:49;;;;;;;15.88;10.43;;;;;;;;;;5032919;28;20046;-68
2023/07/08 04:55:17;;;;;;;22.63;10.48;;;;;;;;;;5031532;28;20068;-68
2023/07/08 04:57:45;;;;;;;20.38;10.70;;;;;;;;;;5032432;28;20606;-68
2023/07/08 05:00:15;;;;;;;16.92;10.85;;;;;;;;;;5032863;28;20487;-68
2023/07/08 05:02:43;;;;;;;18.58;9.93;;;;;;;;;;5032842;28;20037;-68
2023/07/08 05:05:10;;;;;;;20.23;10.43;;;;;;;;;;5032805;28;20105;-68
2023/07/08 05:07:38;;;;;;;22.83;10.02;;;;;;;;;;5032826;28;20120;-67
2023/07/08 05:10:05;;;;;;;16.02;9.60;;;;;;;;;;5032726;28;20410;-67
2023/07/08 05:12:33;;;;;;;23.58;10.02;;;;;;;;;;5031195;28;20092;-67
2023/07/08 05:15:00;;;;;;;17.42;10.20;;;;;;;;;;5032349;28;20140;-67
2023/07/08 05:17:28;;;;;;;21.60;10.25;;;;;;;;;;5032435;28;20087;-66
2023/07/08 05:19:57;;;;;;;19.92;9.13;;;;;;;;;;5031354;28;20112;-68
2023/07/08 05:22:25;;;;;;;16.38;10.05;;;;;;;;;;5030305;28;20069;-68
2023/07/08 05:24:56;;;;;;;17.23;10.18;;;;;;;;;;5032706;28;20430;-70
2023/07/08 05:27:24;;;;;;;21.35;11.00;;;;;;;;;;5028917;28;20469;-66
2023/07/08 05:29:51;;;;;;;20.85;10.90;;;;;;;;;;5031815;28;20041;-66
2023/07/08 05:32:19;;;;;;;19.38;10.43;;;;;;;;;;5031069;28;20073;-68
2023/07/08 05:34:47;;;;;;;20.92;10.70;;;;;;;;;;5032527;28;20045;-67
2023/07/08 05:37:15;;;;;;;24.02;11.40;;;;;;;;;;5031790;28;20053;-66
2023/07/08 05:39:42;;;;;;;24.15;11.80;;;;;;;;;;5031828;28;20487;-67
2023/07/08 05:42:10;;;;;;;23.75;12.13;;;;;;;;;;5031552;28;20038;-68
2023/07/08 05:44:38;;;;;;;30.17;12.32;;;;;;;;;;5031568;28;20041;-68
2023/07/08 05:47:05;;;;;;;19.73;10.75;;;;;;;;;;5030447;28;20052;-70
2023/07/08 05:49:33;;;;;;;23.75;11.85;;;;;;;;;;5032023;28;20072;-70
2023/07/08 05:52:05;;;;;;;18.80;10.63;;;;;;;;;;5032066;28;20038;-70
2023/07/08 05:54:33;;;;;;;18.70;10.32;;;;;;;;;;5032088;28;20072;-69
2023/07/08 05:57:00;;;;;;;16.95;11.43;;;;;;;;;;5032184;28;20061;-71
2023/07/08 05:59:28;;;;;;;17.23;9.35;;;;;;;;;;5032408;28;20073;-68
2023/07/08 06:01:55;;;;;;;14.07;9.40;;;;;;;;;;5032343;28;20037;-68
2023/07/08 06:04:23;;;;;;;14.07;8.40;;;;;;;;;;5032063;28;20124;-68
2023/07/08 06:06:50;;;;;;;11.85;8.40;;;;;;;;;;5032204;28;20045;-68
2023/07/08 06:09:18;;;;;;;11.27;7.97;;;;;;;;;;5032327;28;20117;-68
2023/07/08 06:11:45;;;;;;;14.30;8.25;;;;;;;;;;5032227;28;20048;-68
2023/07/08 06:14:13;;;;;;;11.18;7.97;;;;;;;;;;5032387;28;20049;-68
2023/07/08 06:16:40;;;;;;;13.40;9.43;;;;;;;;;;5030639;28;20072;-68
2023/07/08 06:19:10;;;;;;;13.45;8.77;;;;;;;;;;5031940;28;20029;-68
2023/07/08 06:21:37;;;;;;;14.77;8.07;;;;;;;;;;5031961;28;20088;-68
2023/07/08 06:24:05;;;;;;;12.23;7.78;;;;;;;;;;5031945;28;20411;-68
2023/07/08 06:26:32;;;;;;;12.48;7.82;;;;;;;;;;5031783;28;20050;-68
2023/07/08 06:29:00;;;;;;;15.48;9.82;;;;;;;;;;5032155;28;20048;-69
2023/07/08 06:31:28;;;;;;;16.58;9.23;;;;;;;;;;5031895;28;20095;-67
2023/07/08 06:33:56;;;;;;;13.88;10.07;;;;;;;;;;5032764;28;20049;-66
2023/07/08 06:36:23;;;;;;;13.77;8.23;;;;;;;;;;5033862;28;20045;-66
2023/07/08 06:38:51;;;;;;;11.43;7.32;;;;;;;;;;5034952;28;20091;-66
2023/07/08 06:41:18;;;;;;;9.55;6.43;;;;;;;;;;5035289;28;20040;-67
2023/07/08 06:43:46;;;;;;;6.47;4.20;;;;;;;;;;5035368;28;20091;-67
2023/07/08 06:46:16;;;;;;;6.10;4.05;;;;;;;;;;5035654;28;20036;-70
2023/07/08 06:48:44;;;;;;;6.18;3.92;;;;;;;;;;5035368;28;20056;-68
2023/07/08 06:51:11;;;;;;;7.13;4.88;;;;;;;;;;5035209;28;20096;-70
2023/07/08 06:53:39;;;;;;;5.32;3.88;;;;;;;;;;5030736;28;20037;-70
2023/07/08 06:56:06;;;;;;;4.93;3.58;;;;;;;;;;5034268;28;20037;-70
2023/07/08 06:58:34;;;;;;;6.68;4.00;;;;;;;;;;5034743;28;20128;-70
2023/07/08 07:01:01;;;;;;;8.98;3.63;;;;;;;;;;5034828;28;20041;-70
2023/07/08 07:03:29;;;;;;;6.88;3.95;;;;;;;;;;5034802;28;20045;-69
2023/07/08 07:05:57;;;;;;;5.63;4.30;;;;;;;;;;5034481;28;20124;-70
2023/07/08 07:08:24;;;;;;;5.30;4.10;;;;;;;;;;5033577;28;20112;-69
2023/07/08 07:10:52;;;;;;;6.88;3.95;;;;;;;;;;5033471;28;20487;-70
2023/07/08 07:13:22;;;;;;;6.85;3.75;;;;;;;;;;5019513;28;20145;-69
2023/07/08 07:15:50;;;;;;;5.35;4.15;;;;;;;;;;5034639;28;20037;-69
2023/07/08 07:18:19;;;;;;;5.78;4.28;;;;;;;;;;5034389;28;20388;-69
2023/07/08 07:20:51;;;;;;;5.07;3.38;;;;;;;;;;5034517;28;20454;-69
2023/07/08 07:23:18;;;;;;;5.50;4.00;;;;;;;;;;5034372;28;20045;-69
2023/07/08 07:25:49;;;;;;;3.83;3.28;;;;;;;;;;5033971;28;20040;-68
2023/07/08 07:28:17;;;;;;;4.85;3.25;;;;;;;;;;5034263;28;20037;-68
2023/07/08 07:30:45;;;;;;;4.25;3.53;;;;;;;;;;5033766;28;20103;-68
2023/07/08 07:33:13;;;;;;;5.43;3.53;;;;;;;;;;5034004;28;20037;-67
2023/07/08 07:35:44;;;;;;;5.93;4.03;;;;;;;;;;5033616;28;20096;-68
2023/07/08 07:38:12;;;;;;;5.60;4.10;;;;;;;;;;5033331;28;20438;-68
2023/07/08 07:40:40;;;;;;;5.65;3.90;;;;;;;;;;5033084;28;20125;-68
2023/07/08 07:43:08;;;;;;;4.70;3.90;;;;;;;;;;5034016;28;20487;-68
2023/07/08 07:45:35;;;;;;;5.65;4.15;;;;;;;;;;5032947;28;20391;-68
2023/07/08 07:48:03;;;;;;;6.82;3.95;;;;;;;;;;5033930;28;20045;-68
2023/07/08 07:50:31;;;;;;;4.50;3.50;;;;;;;;;;5033890;28;20041;-68
2023/07/08 07:52:58;;;;;;;5.82;3.65;;;;;;;;;;5033103;28;20045;-67
2023/07/08 07:55:26;;;;;;;4.90;3.70;;;;;;;;;;5033812;28;20042;-67
2023/07/08 07:57:53;;;;;;;7.45;3.60;;;;;;;;;;5034025;28;20111;-68
2023/07/08 08:00:21;;;;;;;5.43;3.85;;;;;;;;;;5033937;28;20037;-68
2023/07/08 08:02:48;;;;;;;6.97;3.92;;;;;;;;;;5033838;28;20092;-68
2023/07/08 08:05:16;;;;;;;5.72;4.05;;;;;;;;;;5033862;28;20041;-68
2023/07/08 08:07:44;;;;;;;5.93;4.05;;;;;;;;;;5033605;28;20083;-67
2023/07/08 08:10:11;;;;;;;5.60;4.60;;;;;;;;;;5033549;28;20085;-68
2023/07/08 08:12:39;;;;;;;5.88;4.68;;;;;;;;;;5033503;28;20037;-67
2023/07/08 08:15:20;;;;;;;6.35;4.22;;;;;;;;;;5032351;28;20132;-68
2023/07/08 08:17:49;;;;;;;5.65;4.55;;;;;;;;;;5033259;28;20491;-67
2023/07/08 08:20:17;;;;;;;4.75;3.80;;;;;;;;;;5033452;28;20076;-68
2023/07/08 08:22:44;;;;;;;3.90;3.50;;;;;;;;;;5033250;28;20506;-67
2023/07/08 08:25:12;;;;;;;4.93;3.72;;;;;;;;;;5033388;28;20088;-67
2023/07/08 08:27:40;;;;;;;7.18;4.20;;;;;;;;;;5033248;28;20045;-68
2023/07/08 08:30:08;;;;;;;7.43;4.50;;;;;;;;;;5033224;28;20460;-68
2023/07/08 08:32:35;;;;;;;4.63;4.00;;;;;;;;;;5033216;28;20111;-68
2023/07/08 08:35:03;;;;;;;7.97;4.88;;;;;;;;;;5033007;28;20045;-68
2023/07/08 08:37:31;;;;;;;12.50;5.30;;;;;;;;;;5032984;28;20045;-69
2023/07/08 08:39:58;;;;;;;9.07;5.10;;;;;;;;;;5033188;28;20087;-69
2023/07/08 08:42:28;;;;;;;10.63;5.47;;;;;;;;;;5033078;28;20049;-69
2023/07/08 08:44:57;;;;;;;7.13;4.70;;;;;;;;;;5032471;28;20137;-68
2023/07/08 08:47:42;;;;;;;6.95;4.78;;;;;;;;;;5032522;28;20087;-68
2023/07/08 08:50:24;;;;;;;7.53;5.43;;;;;;;;;;5032281;28;20141;-67
2023/07/08 08:52:54;;;;;;;10.88;5.55;;;;;;;;;;5022774;28;20095;-69
2023/07/08 08:55:25;;;;;;;7.20;4.88;;;;;;;;;;5031769;28;20160;-68
2023/07/08 08:57:53;;;;;;;9.60;5.20;;;;;;;;;;5032426;28;20962;-68
2023/07/08 09:00:25;;;;;;;7.20;4.78;;;;;;;;;;5032429;28;20075;-68
2023/07/08 09:03:31;;;;;;;6.85;4.30;;;;;;;;;;5030874;28;20438;-68
2023/07/08 09:05:59;;;;;;;9.43;5.32;;;;;;;;;;5010434;28;20078;-68
2023/07/08 09:08:27;;;;;;;6.97;4.72;;;;;;;;;;5009305;28;20037;-71
2023/07/08 09:10:58;;;;;;;5.47;4.00;;;;;;;;;;5014989;28;20069;-70
2023/07/08 09:13:28;;;;;;;8.60;4.70;;;;;;;;;;5031913;28;20038;-70
2023/07/08 09:16:02;;;;;;;6.55;4.07;;;;;;;;;;5031707;28;20395;-71
2023/07/08 09:18:33;;;;;;;6.35;4.45;;;;;;;;;;5028655;28;20064;-72
2023/07/08 09:21:04;;;;;;;7.55;4.35;;;;;;;;;;5031021;28;20075;-71
2023/07/08 09:23:33;;;;;;;6.15;4.00;;;;;;;;;;5031506;28;20491;-71
2023/07/08 09:26:12;;;;;;;4.55;3.65;;;;;;;;;;5031606;28;20481;-71
2023/07/08 09:28:41;;;;;;;9.10;4.13;;;;;;;;;;5031702;28;20037;-70
2023/07/08 09:31:10;;;;;;;7.10;3.80;;;;;;;;;;5031570;28;20138;-71
2023/07/08 09:33:40;;;;;;;6.40;4.55;;;;;;;;;;5030951;28;20044;-70
2023/07/08 09:36:17;;;;;;;6.05;4.22;;;;;;;;;;5030007;28;20040;-68
2023/07/08 09:38:48;;;;;;;7.13;4.45;;;;;;;;;;5030198;28;20041;-68
2023/07/08 09:41:28;;;;;;;5.82;4.10;;;;;;;;;;5026249;28;20483;-69
2023/07/08 09:44:04;;;;;;;6.40;3.55;;;;;;;;;;5029097;28;20111;-68
2023/07/08 09:46:37;;;;;;;6.68;3.78;;;;;;;;;;5031625;28;20068;-68
2023/07/08 09:49:17;;;;;;;8.38;3.72;;;;;;;;;;5031756;28;20102;-69
2023/07/08 09:51:46;;;;;;;3.70;3.30;;;;;;;;;;5031960;28;20430;-69
2023/07/08 09:54:13;;;;;;;4.57;3.78;;;;;;;;;;5032279;28;20041;-69
2023/07/08 09:56:43;;;;;;;4.45;3.55;;;;;;;;;;5032131;28;20446;-69
2023/07/08 09:59:14;;;;;;;4.05;3.50;;;;;;;;;;5031343;28;20041;-68
2023/07/08 10:01:43;;;;;;;5.95;3.90;;;;;;;;;;5032094;28;20046;-68
2023/07/08 10:04:12;;;;;;;4.60;3.70;;;;;;;;;;5030674;28;20392;-70
2023/07/08 10:06:41;;;;;;;6.55;4.35;;;;;;;;;;5031970;28;20041;-69
2023/07/08 10:09:16;;;;;;;3.92;3.40;;;;;;;;;;5032184;28;20120;-70
2023/07/08 10:11:47;;;;;;;6.13;4.22;;;;;;;;;;5035896;28;20430;-68
2023/07/08 10:14:26;;;;;;;5.15;3.80;;;;;;;;;;5035648;28;20511;-68
2023/07/08 10:16:54;;;;;;;4.93;3.53;;;;;;;;;;5038645;28;20462;-70
2023/07/08 10:19:22;;;;;;;5.70;3.70;;;;;;;;;;5018465;28;20053;-69
2023/07/08 10:22:02;;;;;;;6.97;4.72;;;;;;;;;;5029020;28;20057;-70
2023/07/08 10:24:38;;;;;;;5.93;3.80;;;;;;;;;;5035376;28;20107;-72
2023/07/08 10:27:10;;;;;;;4.80;3.47;;;;;;;;;;5035222;28;20075;-73
2023/07/08 10:29:47;;;;;;;5.43;3.75;;;;;;;;;;5031248;28;20037;-73
2023/07/08 10:32:21;;;;;;;5.18;3.60;;;;;;;;;;5017380;28;20084;-73
2023/07/08 10:34:52;;;;;;;6.28;3.67;;;;;;;;;;5035231;28;20041;-72
2023/07/08 10:37:25;;;;;;;9.35;4.38;;;;;;;;;;5034963;28;20053;-73
2023/07/08 10:39:56;;;;;;;5.35;4.03;;;;;;;;;;5035127;28;20052;-72
2023/07/08 10:42:29;;;;;;;5.82;4.50;;;;;;;;;;5034985;28;20068;-72
2023/07/08 10:45:04;;;;;;;6.55;4.45;;;;;;;;;;5034354;28;20391;-72
2023/07/08 10:47:45;;;;;;;7.13;4.30;;;;;;;;;;5033818;28;20137;-73
2023/07/08 10:50:40;;;;;;;7.03;4.15;;;;;;;;;;5016070;28;20026;-72
2023/07/08 10:53:10;;;;;;;7.25;4.85;;;;;;;;;;5018984;28;20076;-71
2023/07/08 10:55:38;;;;;;;9.65;5.13;;;;;;;;;;5034968;28;20041;-73
2023/07/08 10:58:18;;;;;;;6.28;4.95;;;;;;;;;;5034418;28;20067;-73
2023/07/08 11:01:11;;;;;;;6.25;4.70;;;;;;;;;;5034780;28;20041;-72
2023/07/08 11:03:50;;;;;;;7.03;4.78;;;;;;;;;;5031818;28;20041;-73
2023/07/08 11:06:20;;;;;;;7.47;4.70;;;;;;;;;;5034615;28;20475;-72
2023/07/08 11:08:59;;;;;;;8.40;4.93;;;;;;;;;;5034635;28;20044;-72
2023/07/08 11:11:42;;;;;;;5.68;4.88;;;;;;;;;;5035014;28;20132;-75
2023/07/08 11:14:13;;;;;;;5.90;5.20;;;;;;;;;;5034441;28;20061;-69
2023/07/08 11:16:46;;;;;;;7.18;4.93;;;;;;;;;;5032953;28;20053;-72
2023/07/08 11:19:18;;;;;;;6.05;4.70;;;;;;;;;;5034486;28;20152;-72
2023/07/08 11:21:54;;;;;;;8.23;4.60;;;;;;;;;;5033884;28;20076;-70
2023/07/08 11:24:46;;;;;;;7.75;4.57;;;;;;;;;;5033033;28;20076;-69
2023/07/08 11:27:19;;;;;;;5.65;3.80;;;;;;;;;;5031229;28;20503;-71
2023/07/08 11:29:49;;;;;;;6.57;4.13;;;;;;;;;;5032945;28;20041;-78
2023/07/08 11:32:18;;;;;;;6.30;3.83;;;;;;;;;;5032798;28;20069;-70
2023/07/08 11:34:48;;;;;;;4.28;3.60;;;;;;;;;;5024695;28;20045;-72
2023/07/08 11:37:16;;;;;;;6.25;3.60;;;;;;;;;;5034058;28;20134;-72
2023/07/08 11:39:45;;;;;;;4.97;3.58;;;;;;;;;;5034195;28;20045;-71
2023/07/08 11:42:12;;;;;;;5.50;3.88;;;;;;;;;;5023406;28;21231;-72
2023/07/08 11:44:51;;;;;;;3.47;3.08;;;;;;;;;;5022262;28;20049;-71
2023/07/08 11:47:20;;;;;;;3.67;3.28;;;;;;;;;;5028784;28;20037;-70
2023/07/08 11:49:49;;;;;;;5.80;3.65;;;;;;;;;;5032443;28;20064;-69
2023/07/08 11:52:20;;;;;;;5.28;3.58;;;;;;;;;;5033775;28;20645;-70
2023/07/08 11:54:50;;;;;;;4.20;3.45;;;;;;;;;;5033714;28;20092;-69
2023/07/08 11:57:25;;;;;;;5.07;3.67;;;;;;;;;;5034243;28;20487;-70
2023/07/08 12:00:08;;;;;;;4.80;3.53;;;;;;;;;;5032485;28;20461;-70
2023/07/08 12:02:48;;;;;;;4.40;3.15;;;;;;;;;;5033967;28;20408;-70
2023/07/08 12:05:15;;;;;;;4.00;3.42;;;;;;;;;;5033771;28;20069;-70
2023/07/08 12:07:43;;;;;;;4.25;3.67;;;;;;;;;;5033820;28;20107;-70
2023/07/08 12:10:18;;;;;;;4.10;3.65;;;;;;;;;;5033610;28;20065;-69
2023/07/08 12:12:47;;;;;;;3.92;3.50;;;;;;;;;;5033579;28;20033;-69
2023/07/08 12:15:31;;;;;;;5.15;3.53;;;;;;;;;;5033881;28;20037;-69
2023/07/08 12:18:01;;;;;;;8.60;4.20;;;;;;;;;;5032765;28;20503;-69
2023/07/08 12:20:30;;;;;;;13.32;5.55;;;;;;;;;;5032422;28;20045;-68
2023/07/08 12:22:58;;;;;;;8.00;5.10;;;;;;;;;;5033565;28;20087;-68
2023/07/08 12:25:27;;;;;;;11.55;5.35;;;;;;;;;;5034783;28;20071;-72
2023/07/08 12:27:55;;;;;;;6.32;4.07;;;;;;;;;;5031927;28;20128;-72
2023/07/08 12:30:23;;;;;;;5.40;3.80;;;;;;;;;;5023545;28;20037;-71
2023/07/08 12:32:50;;;;;;;7.55;5.00;;;;;;;;;;5029531;28;20124;-71
2023/07/08 12:35:26;;;;;;;6.47;4.72;;;;;;;;;;5033080;28;20045;-70
2023/07/08 12:37:59;;;;;;;6.63;4.90;;;;;;;;;;5018977;28;20128;-71
2023/07/08 12:40:28;;;;;;;9.82;5.72;;;;;;;;;;5031692;28;20076;-71
2023/07/08 12:42:57;;;;;;;8.38;5.88;;;;;;;;;;5032266;28;20088;-71
2023/07/08 12:45:25;;;;;;;7.00;5.45;;;;;;;;;;5024044;28;20056;-71
2023/07/08 12:47:53;;;;;;;7.65;6.10;;;;;;;;;;5027745;28;20376;-71
2023/07/08 12:50:23;;;;;;;10.25;5.22;;;;;;;;;;5032441;28;20037;-71
2023/07/08 12:52:50;;;;;;;6.68;5.65;;;;;;;;;;5032783;28;20125;-71
2023/07/08 12:55:18;;;;;;;6.80;6.00;;;;;;;;;;5032342;28;20064;-71
2023/07/08 12:57:50;;;;;;;8.02;5.70;;;;;;;;;;5032370;28;20041;-72
2023/07/08 13:00:25;;;;;;;6.15;5.28;;;;;;;;;;5032104;28;20042;-72
2023/07/08 13:02:56;;;;;;;8.45;7.05;;;;;;;;;;5020730;28;20034;-71
2023/07/08 13:05:24;;;;;;;6.45;4.90;;;;;;;;;;5031351;28;20044;-71
2023/07/08 13:07:52;;;;;;;7.28;5.18;;;;;;;;;;5031264;28;20081;-74
2023/07/08 13:10:24;;;;;;;5.68;4.30;;;;;;;;;;5031923;28;20100;-72
2023/07/08 13:12:54;;;;;;;5.57;4.70;;;;;;;;;;5032059;28;20046;-70
2023/07/08 13:15:23;;;;;;;8.38;4.88;;;;;;;;;;5032153;28;20045;-76
2023/07/08 13:17:51;;;;;;;8.45;4.97;;;;;;;;;;5032454;28;20044;-75
2023/07/08 13:20:19;;;;;;;5.38;4.68;;;;;;;;;;5031807;28;20050;-72
2023/07/08 13:22:49;;;;;;;5.18;4.63;;;;;;;;;;5032214;28;20041;-75
2023/07/08 13:25:18;;;;;;;5.78;4.70;;;;;;;;;;5032241;28;20062;-73
2023/07/08 13:27:59;;;;;;;6.63;4.60;;;;;;;;;;5030796;28;20128;-76
2023/07/08 13:30:28;;;;;;;5.20;4.63;;;;;;;;;;5032157;28;20041;-71
2023/07/08 13:32:57;;;;;;;5.35;4.10;;;;;;;;;;5030684;28;20438;-76
2023/07/08 13:35:27;;;;;;;5.18;4.00;;;;;;;;;;5032193;28;20041;-73
2023/07/08 13:37:56;;;;;;;6.65;4.90;;;;;;;;;;5017971;28;20573;-77
2023/07/08 13:40:27;;;;;;;5.38;4.25;;;;;;;;;;5031995;28;20052;-75
2023/07/08 13:42:54;;;;;;;6.13;4.22;;;;;;;;;;5032030;28;20036;-71
2023/07/08 13:45:28;;;;;;;5.15;3.65;;;;;;;;;;5035524;28;20034;-71
2023/07/08 13:48:13;;;;;;;5.25;3.78;;;;;;;;;;5036177;28;20403;-71
2023/07/08 13:50:40;;;;;;;;;;;;;;;;;;5036471;28;20049;-72
2023/07/08 13:53:27;;;;;;;5.97;3.53;;;;;;;;;;5035999;28;20008;-72
2023/07/08 13:55:59;;;;;;;4.47;3.90;;;;;;;;;;5036298;28;20184;-74
2023/07/08 13:58:29;;;;;;;4.63;3.63;;;;;;;;;;5035634;28;20117;-74
2023/07/08 14:00:57;;;;;;;6.15;4.30;;;;;;;;;;5035250;28;20124;-72
2023/07/08 14:03:26;;;;;;;5.50;4.40;;;;;;;;;;5035483;28;20144;-72
2023/07/08 14:05:53;;;;;;;6.05;4.03;;;;;;;;;;5034807;28;20133;-73
2023/07/08 14:08:22;;;;;;;10.15;4.20;;;;;;;;;;5035448;28;20051;-73
2023/07/08 14:10:49;;;;;;;7.95;4.20;;;;;;;;;;5034331;28;20069;-73
2023/07/08 14:13:17;;;;;;;7.10;4.15;;;;;;;;;;5035587;28;20056;-73
2023/07/08 14:15:46;;;;;;;6.10;4.00;;;;;;;;;;5035247;28;20454;-72
2023/07/08 14:18:14;;;;;;;5.43;4.13;;;;;;;;;;5035523;28;20037;-73
2023/07/08 14:20:41;;;;;;;5.47;4.40;;;;;;;;;;5035285;28;20044;-74
2023/07/08 14:23:09;;;;;;;5.93;4.22;;;;;;;;;;5035760;28;20103;-76
2023/07/08 14:25:37;;;;;;;5.80;4.78;;;;;;;;;;5035532;28;20060;-75
2023/07/08 14:28:05;;;;;;;5.57;4.78;;;;;;;;;;5035478;28;20044;-75
2023/07/08 14:30:34;;;;;;;4.22;3.83;;;;;;;;;;5035287;28;20048;-74
2023/07/08 14:33:02;;;;;;;6.32;4.38;;;;;;;;;;5035105;28;20034;-75
2023/07/08 14:35:30;;;;;;;5.57;4.47;;;;;;;;;;5035236;28;20069;-75
2023/07/08 14:37:58;;;;;;;5.03;4.35;;;;;;;;;;5021170;28;20053;-75
2023/07/08 14:40:39;;;;;;;4.72;4.05;;;;;;;;;;5035021;28;20053;-74
2023/07/08 14:43:11;;;;;;;6.28;3.92;;;;;;;;;;5021806;28;20124;-74
2023/07/08 14:45:44;;;;;;;5.50;4.40;;;;;;;;;;5035321;28;20402;-73
2023/07/08 14:48:12;;;;;;;6.47;3.93;;;;;;;;;;5020227;28;20038;-75
2023/07/08 14:50:40;;;;;;;6.07;5.40;;;;;;;;;;5033927;28;20069;-73
2023/07/08 14:53:08;;;;;;;13.57;10.73;;;;;;;;;;5035153;28;20069;-74